createdAt,value
2019-06-01T00:02:04.077Z,58.86
2019-06-01T00:07:01.128Z,58.87
2019-06-01T00:11:57.438Z,58.89
2019-06-01T00:16:53.363Z,58.87
2019-06-01T00:21:49.523Z,58.84
2019-06-01T00:26:45.913Z,58.93
2019-06-01T00:31:43.045Z,59.05
2019-06-01T00:36:39.179Z,59.19
2019-06-01T00:41:35.114Z,59.33
2019-06-01T00:46:31.136Z,59.31
2019-06-01T00:51:27.068Z,59.41
2019-06-01T00:56:23.094Z,59.40
2019-06-01T01:01:19.017Z,59.21
2019-06-01T01:06:14.942Z,59.03
2019-06-01T01:11:11.018Z,59.29
2019-06-01T01:16:06.941Z,59.40
2019-06-01T01:21:03.006Z,59.53
2019-06-01T01:25:58.907Z,59.65
2019-06-01T01:31:06.555Z,59.78
2019-06-01T01:35:54.098Z,59.93
2019-06-01T01:40:50.317Z,59.62
2019-06-01T01:45:46.440Z,59.32
2019-06-01T01:50:42.424Z,59.03
2019-06-01T01:55:38.443Z,59.14
2019-06-01T02:00:45.848Z,59.80
2019-06-01T02:05:41.861Z,60.09
2019-06-01T02:10:37.882Z,60.36
2019-06-01T02:15:34.997Z,60.38
2019-06-01T02:20:31.375Z,60.55
2019-06-01T02:25:27.505Z,60.84
2019-06-01T02:30:23.643Z,61.08
2019-06-01T02:35:19.598Z,61.00
2019-06-01T02:40:15.721Z,60.99
2019-06-01T02:45:12.350Z,60.98
2019-06-01T02:50:08.809Z,60.67
2019-06-01T02:55:07.644Z,60.86
2019-06-01T03:00:06.697Z,60.82
2019-06-01T03:05:05.543Z,60.29
2019-06-01T03:10:03.315Z,59.75
2019-06-01T03:15:00.587Z,60.55
2019-06-01T03:19:57.012Z,61.18
2019-06-01T03:24:54.146Z,61.74
2019-06-01T03:29:53.990Z,61.90
2019-06-01T03:34:50.011Z,62.06
2019-06-01T03:39:47.250Z,62.31
2019-06-01T03:44:43.175Z,62.47
2019-06-01T03:49:39.127Z,62.32
2019-06-01T03:54:35.105Z,62.11
2019-06-01T03:59:30.998Z,61.10
2019-06-01T04:04:26.920Z,61.34
2019-06-01T04:09:23.468Z,61.65
2019-06-01T04:14:19.435Z,61.06
2019-06-01T04:19:15.363Z,61.34
2019-06-01T04:24:12.332Z,61.63
2019-06-01T04:29:08.504Z,61.75
2019-06-01T04:34:04.623Z,61.77
2019-06-01T04:39:09.354Z,61.01
2019-06-01T04:44:06.457Z,60.54
2019-06-01T04:49:02.559Z,60.69
2019-06-01T04:53:58.538Z,60.52
2019-06-01T04:58:54.462Z,60.27
2019-06-01T05:03:50.399Z,59.61
2019-06-01T05:08:49.326Z,59.08
2019-06-01T05:13:45.366Z,58.83
2019-06-01T05:18:41.279Z,58.49
2019-06-01T05:23:37.268Z,57.51
2019-06-01T05:28:33.194Z,56.04
2019-06-01T05:33:36.960Z,53.73
2019-06-01T05:38:28.390Z,53.39
2019-06-01T05:43:24.323Z,52.42
2019-06-01T05:48:25.038Z,51.30
2019-06-01T05:53:19.896Z,50.56
2019-06-01T05:58:17.275Z,49.16
2019-06-01T06:03:16.209Z,48.65
2019-06-01T06:08:12.734Z,47.08
2019-06-01T06:13:09.022Z,46.74
2019-06-01T06:18:05.049Z,45.93
2019-06-01T06:23:00.983Z,45.16
2019-06-01T06:27:56.911Z,45.49
2019-06-01T06:32:52.840Z,44.80
2019-06-01T06:37:48.771Z,45.63
2019-06-01T06:42:44.703Z,44.71
2019-06-01T06:47:40.634Z,44.94
2019-06-01T06:52:36.601Z,44.04
2019-06-01T06:57:32.532Z,42.86
2019-06-01T07:02:28.462Z,44.21
2019-06-01T07:07:24.403Z,43.19
2019-06-01T07:12:21.224Z,44.12
2019-06-01T07:17:17.279Z,45.42
2019-06-01T07:22:16.762Z,43.64
2019-06-01T07:27:11.670Z,41.15
2019-06-01T07:32:08.543Z,40.71
2019-06-01T07:37:07.232Z,39.37
2019-06-01T07:42:03.522Z,41.46
2019-06-01T07:46:59.552Z,40.74
2019-06-01T07:51:57.059Z,40.79
2019-06-01T07:56:53.938Z,40.28
2019-06-01T08:01:50.769Z,40.40
2019-06-01T08:06:48.605Z,40.71
2019-06-01T08:11:44.616Z,38.01
2019-06-01T08:16:40.550Z,37.80
2019-06-01T08:21:36.484Z,38.94
2019-06-01T08:26:32.747Z,39.37
2019-06-01T08:31:28.961Z,37.55
2019-06-01T08:36:25.274Z,37.56
2019-06-01T08:41:21.305Z,36.08
2019-06-01T08:46:17.235Z,37.42
2019-06-01T08:51:13.188Z,38.18
2019-06-01T08:56:09.123Z,38.01
2019-06-01T09:01:05.052Z,37.52
2019-06-01T09:06:00.989Z,37.07
2019-06-01T09:10:56.927Z,37.32
2019-06-01T09:15:52.861Z,37.22
2019-06-01T09:20:48.893Z,34.96
2019-06-01T09:25:44.825Z,36.81
2019-06-01T09:30:40.776Z,36.87
2019-06-01T09:35:52.678Z,36.72
2019-06-01T09:40:35.193Z,35.99
2019-06-01T09:45:34.577Z,35.97
2019-06-01T09:50:31.303Z,36.09
2019-06-01T09:55:27.532Z,34.99
2019-06-01T10:00:25.055Z,35.46
2019-06-01T10:05:20.982Z,37.51
2019-06-01T10:10:17.007Z,36.77
2019-06-01T10:15:13.038Z,34.04
2019-06-01T10:20:09.665Z,35.08
2019-06-01T10:25:06.397Z,34.35
2019-06-01T10:30:05.433Z,35.69
2019-06-01T10:35:01.764Z,35.19
2019-06-01T10:39:57.690Z,32.66
2019-06-01T10:44:53.619Z,34.68
2019-06-01T10:49:49.566Z,32.59
2019-06-01T10:54:45.496Z,32.20
2019-06-01T10:59:42.531Z,32.09
2019-06-01T11:04:38.980Z,34.41
2019-06-01T11:09:36.889Z,34.32
2019-06-01T11:14:32.985Z,32.70
2019-06-01T11:19:28.933Z,32.33
2019-06-01T11:24:24.859Z,32.94
2019-06-01T11:29:20.785Z,33.74
2019-06-01T11:34:16.711Z,32.78
2019-06-01T11:39:13.325Z,30.92
2019-06-01T11:44:09.275Z,32.85
2019-06-01T11:49:05.321Z,32.81
2019-06-01T11:54:01.347Z,32.70
2019-06-01T11:58:57.378Z,32.97
2019-06-01T12:03:53.305Z,31.95
2019-06-01T12:08:56.117Z,32.55
2019-06-01T12:13:52.142Z,31.17
2019-06-01T12:18:48.186Z,32.04
2019-06-01T12:23:45.513Z,29.61
2019-06-01T12:28:41.755Z,29.54
2019-06-01T12:33:37.966Z,31.51
2019-06-01T12:38:58.175Z,31.96
2019-06-01T12:44:01.888Z,30.26
2019-06-01T12:48:57.810Z,29.58
2019-06-01T12:53:53.739Z,30.83
2019-06-01T12:58:49.674Z,29.89
2019-06-01T13:03:45.595Z,29.96
2019-06-01T13:08:47.288Z,28.75
2019-06-01T13:13:43.328Z,28.83
2019-06-01T13:18:39.274Z,29.38
2019-06-01T13:23:35.204Z,29.54
2019-06-01T13:28:37.982Z,29.60
2019-06-01T13:33:28.974Z,29.76
2019-06-01T13:38:26.447Z,27.17
2019-06-01T13:43:22.480Z,29.64
2019-06-01T13:48:18.406Z,28.26
2019-06-01T13:53:14.369Z,27.73
2019-06-01T13:58:10.297Z,28.67
2019-06-01T14:03:06.322Z,28.13
2019-06-01T14:08:02.349Z,27.20
2019-06-01T14:12:58.268Z,28.71
2019-06-01T14:17:54.576Z,28.49
2019-06-01T14:22:51.905Z,27.00
2019-06-01T14:27:48.282Z,27.38
2019-06-01T14:32:44.204Z,25.94
2019-06-01T14:37:41.247Z,29.12
2019-06-01T14:42:37.954Z,25.46
2019-06-01T14:47:34.518Z,24.36
2019-06-01T14:52:34.565Z,24.05
2019-06-01T14:57:29.818Z,26.27
2019-06-01T15:02:25.822Z,27.24
2019-06-01T15:07:21.997Z,25.33
2019-06-01T15:12:18.317Z,27.30
2019-06-01T15:17:14.464Z,27.24
2019-06-01T15:22:10.708Z,28.64
2019-06-01T15:27:06.841Z,28.37
2019-06-01T15:32:04.327Z,27.96
2019-06-01T15:37:01.910Z,26.20
2019-06-01T15:41:59.130Z,27.58
2019-06-01T15:46:55.991Z,27.31
2019-06-01T15:51:52.052Z,25.75
2019-06-01T15:56:48.815Z,25.97
2019-06-01T16:01:45.618Z,25.33
2019-06-01T16:06:42.605Z,27.07
2019-06-01T16:11:39.167Z,26.02
2019-06-01T16:16:35.213Z,25.42
2019-06-01T16:21:31.243Z,25.76
2019-06-01T16:26:28.118Z,24.52
2019-06-01T16:31:24.163Z,26.03
2019-06-01T16:36:21.082Z,27.92
2019-06-01T16:41:17.141Z,27.58
2019-06-01T16:46:13.115Z,26.47
2019-06-01T16:51:09.188Z,24.62
2019-06-01T16:56:06.368Z,24.51
2019-06-01T17:01:02.750Z,23.61
2019-06-01T17:05:58.689Z,24.29
2019-06-01T17:10:54.616Z,24.41
2019-06-01T17:15:50.572Z,21.67
2019-06-01T17:20:52.173Z,23.67
2019-06-01T17:25:48.105Z,25.21
2019-06-01T17:30:44.241Z,24.37
2019-06-01T17:35:40.171Z,24.07
2019-06-01T17:40:39.673Z,23.55
2019-06-01T17:45:34.562Z,24.04
2019-06-01T17:50:30.610Z,24.02
2019-06-01T17:55:34.707Z,24.22
2019-06-01T18:00:30.738Z,25.28
2019-06-01T18:05:26.765Z,25.57
2019-06-01T18:10:23.191Z,26.22
2019-06-01T18:15:19.419Z,25.52
2019-06-01T18:20:15.440Z,24.89
2019-06-01T18:25:17.207Z,23.80
2019-06-01T18:30:13.537Z,24.28
2019-06-01T18:35:09.567Z,25.14
2019-06-01T18:40:07.760Z,26.42
2019-06-01T18:45:05.772Z,27.81
2019-06-01T18:50:05.863Z,28.35
2019-06-01T18:55:02.440Z,29.82
2019-06-01T18:59:58.376Z,31.82
2019-06-01T19:04:54.304Z,33.82
2019-06-01T19:09:50.245Z,35.29
2019-06-01T19:14:46.178Z,35.83
2019-06-01T19:19:42.115Z,36.18
2019-06-01T19:24:38.039Z,36.78
2019-06-01T19:29:33.965Z,37.18
2019-06-01T19:34:29.895Z,37.76
2019-06-01T19:39:26.890Z,38.52
2019-06-01T19:44:22.782Z,39.40
2019-06-01T19:49:19.066Z,40.24
2019-06-01T19:54:15.135Z,41.07
2019-06-01T19:59:11.811Z,41.87
2019-06-01T20:04:07.797Z,42.25
2019-06-01T20:09:07.645Z,42.81
2019-06-01T20:14:03.738Z,43.37
2019-06-01T20:18:59.647Z,43.92
2019-06-01T20:23:55.581Z,44.35
2019-06-01T20:28:51.563Z,44.97
2019-06-01T20:33:47.487Z,45.38
2019-06-01T20:38:44.511Z,45.77
2019-06-01T20:43:40.625Z,46.15
2019-06-01T20:48:36.549Z,46.53
2019-06-01T20:53:32.507Z,46.73
2019-06-01T20:58:28.570Z,47.15
2019-06-01T21:03:24.604Z,47.60
2019-06-01T21:08:22.540Z,47.98
2019-06-01T21:13:18.616Z,48.41
2019-06-01T21:18:14.547Z,48.85
2019-06-01T21:23:10.483Z,49.35
2019-06-01T21:28:06.413Z,49.79
2019-06-01T21:33:02.450Z,50.21
2019-06-01T21:37:58.384Z,50.62
2019-06-01T21:43:06.854Z,51.01
2019-06-01T21:47:52.350Z,51.21
2019-06-01T21:52:48.325Z,51.37
2019-06-01T21:57:44.438Z,51.67
2019-06-01T22:02:40.471Z,51.98
2019-06-01T22:07:36.601Z,52.28
2019-06-01T22:12:32.578Z,52.58
2019-06-01T22:17:28.485Z,52.91
2019-06-01T22:22:24.445Z,53.28
2019-06-01T22:27:20.493Z,53.48
2019-06-01T22:32:16.411Z,53.60
2019-06-01T22:37:12.344Z,53.74
2019-06-01T22:42:08.272Z,53.71
2019-06-01T22:47:04.234Z,54.21
2019-06-01T22:52:00.204Z,53.61
2019-06-01T22:56:56.135Z,54.17
2019-06-01T23:01:52.068Z,53.22
2019-06-01T23:06:48.202Z,52.34
2019-06-01T23:11:44.329Z,51.85
2019-06-01T23:16:40.255Z,52.09
2019-06-01T23:21:36.190Z,51.61
2019-06-01T23:26:32.521Z,51.55
2019-06-01T23:31:28.549Z,51.96
2019-06-01T23:36:24.587Z,51.96
2019-06-01T23:41:20.585Z,52.09
2019-06-01T23:46:16.503Z,51.79
2019-06-01T23:51:12.492Z,52.74
2019-06-01T23:56:08.490Z,53.09
